San Gennaro — IIOT2 — position and weather

sailwx.info

Track history (hours):
 
Tides and Currents Weather Stations Pressure Air Temp Water Temp Dewpoint Dewpoint Depression Visibility Wind Speed Wind Dir Waves Ship Positions

San Gennaro

Last reported at 2016-May-06 23:33 UTC. Time now 2016-May-07 00:22 UTC.
Position N 40°51' E 014°16'.

Length 27 m; draft 5.2 m.

Type: Tug. MMSI: 247295700.

Date/timePositionNaut miles runAvg speedWind from/ knotsBaromVisibWave heightAir tempDewpointWater temp
2016-May-06 23:33N 40°51' E 014°16'0 0.0
2016-May-06 22:31N 40°51' E 014°16'0 0.0
2016-May-06 21:33N 40°51' E 014°16'0 0.0
2016-May-06 20:33N 40°51' E 014°16'1 0.7
2016-May-06 19:33N 40°50' E 014°17'1 0.7
2016-May-06 18:33N 40°50' E 014°17'1 0.2
2016-May-06 13:23N 40°50' E 014°16'0 0.5
2016-May-06 12:32N 40°51' E 014°16'0 0.0
2016-May-06 11:33N 40°51' E 014°16'0 0.0
2016-May-06 10:30N 40°51' E 014°16'0 0.0
2016-May-06 09:15N 40°51' E 014°16'0 0.0
2016-May-06 08:33N 40°51' E 014°16'0 0.4
2016-May-06 07:33N 40°50' E 014°16'0 0.4
2016-May-06 06:31N 40°51' E 014°16'0 0.0
2016-May-06 05:32N 40°51' E 014°16'0 0.0
2016-May-06 04:33N 40°51' E 014°16'0 0.0
2016-May-06 03:33N 40°51' E 014°16'0 0.0
2016-May-06 02:33N 40°51' E 014°16'0 0.0
2016-May-06 01:33N 40°51' E 014°16'0 0.0
2016-May-06 00:33N 40°51' E 014°16'0 0.0
2016-May-05 23:33N 40°51' E 014°16'1 1.3
2016-May-05 22:33N 40°50' E 014°18'0 0.3
2016-May-05 21:33N 40°50' E 014°17'1 1.2
2016-May-05 20:33N 40°51' E 014°16'0 0.0
2016-May-05 19:33N 40°51' E 014°16'0 0.0
2016-May-05 17:26N 40°51' E 014°16'0 0.0
2016-May-05 16:08N 40°51' E 014°16'  
2016-Apr-30 23:07N 40°50' E 014°18'1 0.1
2016-Apr-30 16:33N 40°50' E 014°17'1 0.1
2016-Apr-30 12:05N 40°51' E 014°16'0 0.0
2016-Apr-29 22:19N 40°51' E 014°16'0 0.0
2016-Apr-29 21:33N 40°51' E 014°16'0 0.0
2016-Apr-29 20:30N 40°51' E 014°16'0 0.0
2016-Apr-29 19:33N 40°51' E 014°16'0 0.0
2016-Apr-29 10:31N 40°51' E 014°16'1 1.4
2016-Apr-29 09:26N 40°50' E 014°18'2 0.3
2016-Apr-29 04:33N 40°51' E 014°16'0 0.0
2016-Apr-29 03:33N 40°51' E 014°16'0 0.0
2016-Apr-29 02:33N 40°51' E 014°16'0 0.0
2016-Apr-29 01:33N 40°51' E 014°16'0 0.0
2016-Apr-29 00:31N 40°51' E 014°16'0 0.0
2016-Apr-28 23:31N 40°51' E 014°16'0 0.0
2016-Apr-28 22:33N 40°51' E 014°16'0 0.0
2016-Apr-28 21:33N 40°51' E 014°16'0 0.0
2016-Apr-28 20:33N 40°51' E 014°16'0 0.0
2016-Apr-28 19:31N 40°51' E 014°16'0 0.0
2016-Apr-28 18:33N 40°51' E 014°16'0 0.0
2016-Apr-28 17:29N 40°51' E 014°16'1 1.2
2016-Apr-28 16:25N 40°50' E 014°18'1 1.3
2016-Apr-28 15:24N 40°51' E 014°16'0 0.0
2016-Apr-28 14:18N 40°51' E 014°16'6 7.9
2016-Apr-28 13:33N 40°46' E 014°21'4 4.3
2016-Apr-28 12:33N 40°45' E 014°27'0 0.1
2016-Apr-28 11:32N 40°45' E 014°27'8 7.9
2016-Apr-28 10:33N 40°49' E 014°18'2 2.2
2016-Apr-28 09:33N 40°51' E 014°16'0 0.0
2016-Apr-28 08:31N 40°51' E 014°16'1 1.4
2016-Apr-28 07:33N 40°50' E 014°18'1 0.4
2016-Apr-28 04:33N 40°51' E 014°16'0 0.0
2016-Apr-28 02:11N 40°51' E 014°16'0 0.0
2016-Apr-28 01:33N 40°51' E 014°16'0 0.0
2016-Apr-28 00:33N 40°51' E 014°16'0 0.0
2016-Apr-27 23:32N 40°51' E 014°16'0 0.0
2016-Apr-27 22:32N 40°51' E 014°16'0 0.0
2016-Apr-27 21:33N 40°51' E 014°16'0 0.0
2016-Apr-27 20:28N 40°51' E 014°16'0 0.0
2016-Apr-27 19:25N 40°51' E 014°16'0 0.0
2016-Apr-27 18:33N 40°51' E 014°16'0 0.0
2016-Apr-27 17:33N 40°51' E 014°16'0 0.0
2016-Apr-27 16:25N 40°51' E 014°16'0 0.0
2016-Apr-27 15:31N 40°51' E 014°16'0 0.0
2016-Apr-27 14:20N 40°51' E 014°16'0 0.4
2016-Apr-27 13:33N 40°50' E 014°16'0 0.3
2016-Apr-27 12:33N 40°51' E 014°16'0 0.0
2016-Apr-27 11:33N 40°51' E 014°16'0 0.0
2016-Apr-27 10:33N 40°51' E 014°16'1 1.1
2016-Apr-27 09:33N 40°50' E 014°17'1 0.9
2016-Apr-27 08:29N 40°51' E 014°16'0 0.1
2016-Apr-27 07:33N 40°51' E 014°16'0 0.0
2016-Apr-27 06:30N 40°51' E 014°16'0 0.0
2016-Apr-27 05:30N 40°51' E 014°16'0 0.0
2016-Apr-27 04:33N 40°51' E 014°16'0 0.0
2016-Apr-27 03:33N 40°51' E 014°16'0 0.0
2016-Apr-27 02:30N 40°51' E 014°16'0 0.0
2016-Apr-27 01:33N 40°51' E 014°16'0 0.0
2016-Apr-27 00:33N 40°51' E 014°16'1 1.0
2016-Apr-26 23:33N 40°50' E 014°17'  
Track history (hours):
 
Tides and Currents Weather Stations Pressure Air Temp Water Temp Dewpoint Dewpoint Depression Visibility Wind Speed Wind Dir Waves Ship Positions

San Gennaro

Last reported at 2016-May-06 23:33 UTC. Time now 2016-May-07 00:22 UTC.
Position N 40°51' E 014°16'.

Length 27 m; draft 5.2 m.

Type: Tug. MMSI: 247295700.

Date/timePositionNaut miles runAvg speedWind from/ knotsBaromVisibWave heightAir tempDewpointWater temp
2016-May-06 23:33N 40°51' E 014°16'0 0.0
2016-May-06 22:31N 40°51' E 014°16'0 0.0
2016-May-06 21:33N 40°51' E 014°16'0 0.0
2016-May-06 20:33N 40°51' E 014°16'1 0.7
2016-May-06 19:33N 40°50' E 014°17'1 0.7
2016-May-06 18:33N 40°50' E 014°17'1 0.2
2016-May-06 13:23N 40°50' E 014°16'0 0.5
2016-May-06 12:32N 40°51' E 014°16'0 0.0
2016-May-06 11:33N 40°51' E 014°16'0 0.0
2016-May-06 10:30N 40°51' E 014°16'0 0.0
2016-May-06 09:15N 40°51' E 014°16'0 0.0
2016-May-06 08:33N 40°51' E 014°16'0 0.4
2016-May-06 07:33N 40°50' E 014°16'0 0.4
2016-May-06 06:31N 40°51' E 014°16'0 0.0
2016-May-06 05:32N 40°51' E 014°16'0 0.0
2016-May-06 04:33N 40°51' E 014°16'0 0.0
2016-May-06 03:33N 40°51' E 014°16'0 0.0
2016-May-06 02:33N 40°51' E 014°16'0 0.0
2016-May-06 01:33N 40°51' E 014°16'0 0.0
2016-May-06 00:33N 40°51' E 014°16'0 0.0
2016-May-05 23:33N 40°51' E 014°16'1 1.3
2016-May-05 22:33N 40°50' E 014°18'0 0.3
2016-May-05 21:33N 40°50' E 014°17'1 1.2
2016-May-05 20:33N 40°51' E 014°16'0 0.0
2016-May-05 19:33N 40°51' E 014°16'0 0.0
2016-May-05 17:26N 40°51' E 014°16'0 0.0
2016-May-05 16:08N 40°51' E 014°16'  
2016-Apr-30 23:07N 40°50' E 014°18'1 0.1
2016-Apr-30 16:33N 40°50' E 014°17'1 0.1
2016-Apr-30 12:05N 40°51' E 014°16'0 0.0
2016-Apr-29 22:19N 40°51' E 014°16'0 0.0
2016-Apr-29 21:33N 40°51' E 014°16'0 0.0
2016-Apr-29 20:30N 40°51' E 014°16'0 0.0
2016-Apr-29 19:33N 40°51' E 014°16'0 0.0
2016-Apr-29 10:31N 40°51' E 014°16'1 1.4
2016-Apr-29 09:26N 40°50' E 014°18'2 0.3
2016-Apr-29 04:33N 40°51' E 014°16'0 0.0
2016-Apr-29 03:33N 40°51' E 014°16'0 0.0
2016-Apr-29 02:33N 40°51' E 014°16'0 0.0
2016-Apr-29 01:33N 40°51' E 014°16'0 0.0
2016-Apr-29 00:31N 40°51' E 014°16'0 0.0
2016-Apr-28 23:31N 40°51' E 014°16'0 0.0
2016-Apr-28 22:33N 40°51' E 014°16'0 0.0
2016-Apr-28 21:33N 40°51' E 014°16'0 0.0
2016-Apr-28 20:33N 40°51' E 014°16'0 0.0
2016-Apr-28 19:31N 40°51' E 014°16'0 0.0
2016-Apr-28 18:33N 40°51' E 014°16'0 0.0
2016-Apr-28 17:29N 40°51' E 014°16'1 1.2
2016-Apr-28 16:25N 40°50' E 014°18'1 1.3
2016-Apr-28 15:24N 40°51' E 014°16'0 0.0
2016-Apr-28 14:18N 40°51' E 014°16'6 7.9
2016-Apr-28 13:33N 40°46' E 014°21'4 4.3
2016-Apr-28 12:33N 40°45' E 014°27'0 0.1
2016-Apr-28 11:32N 40°45' E 014°27'8 7.9
2016-Apr-28 10:33N 40°49' E 014°18'2 2.2
2016-Apr-28 09:33N 40°51' E 014°16'0 0.0
2016-Apr-28 08:31N 40°51' E 014°16'1 1.4
2016-Apr-28 07:33N 40°50' E 014°18'1 0.4
2016-Apr-28 04:33N 40°51' E 014°16'0 0.0
2016-Apr-28 02:11N 40°51' E 014°16'0 0.0
2016-Apr-28 01:33N 40°51' E 014°16'0 0.0
2016-Apr-28 00:33N 40°51' E 014°16'0 0.0
2016-Apr-27 23:32N 40°51' E 014°16'0 0.0
2016-Apr-27 22:32N 40°51' E 014°16'0 0.0
2016-Apr-27 21:33N 40°51' E 014°16'0 0.0
2016-Apr-27 20:28N 40°51' E 014°16'0 0.0
2016-Apr-27 19:25N 40°51' E 014°16'0 0.0
2016-Apr-27 18:33N 40°51' E 014°16'0 0.0
2016-Apr-27 17:33N 40°51' E 014°16'0 0.0
2016-Apr-27 16:25N 40°51' E 014°16'0 0.0
2016-Apr-27 15:31N 40°51' E 014°16'0 0.0
2016-Apr-27 14:20N 40°51' E 014°16'0 0.4
2016-Apr-27 13:33N 40°50' E 014°16'0 0.3
2016-Apr-27 12:33N 40°51' E 014°16'0 0.0
2016-Apr-27 11:33N 40°51' E 014°16'0 0.0
2016-Apr-27 10:33N 40°51' E 014°16'1 1.1
2016-Apr-27 09:33N 40°50' E 014°17'1 0.9
2016-Apr-27 08:29N 40°51' E 014°16'0 0.1
2016-Apr-27 07:33N 40°51' E 014°16'0 0.0
2016-Apr-27 06:30N 40°51' E 014°16'0 0.0
2016-Apr-27 05:30N 40°51' E 014°16'0 0.0
2016-Apr-27 04:33N 40°51' E 014°16'0 0.0
2016-Apr-27 03:33N 40°51' E 014°16'0 0.0
2016-Apr-27 02:30N 40°51' E 014°16'0 0.0
2016-Apr-27 01:33N 40°51' E 014°16'0 0.0
2016-Apr-27 00:33N 40°51' E 014°16'1 1.0
2016-Apr-26 23:33N 40°50' E 014°17'  

Dump ship's entire track history